DLH596 DNPO-DNAA
Flight info
| Callsign | DLH596 |
|---|---|
| Flight time | 0h 42m |
| Altitude | 36000 |
| Route | ETVUN H206 APVOT UH206 ENG UJ707 ULSIX J707 AMTIR UJ707 NANUV NANUV1N |
| Aircraft | A343/H-SDE2E3FGHIJ3J5M1P2RWXYZ/LB1D1 |
Departure
| Time | 2026-04-30 09:37 |
|---|---|
| Airport | Port Harcourt International Airport (DNPO) |
Arrival
| Time | 2026-04-30 10:19 |
|---|---|
| Airport | Nnamdi Azikiwe International Airport (DNAA) |
| Time | Latitude | Longitude | Altitude | Speed | Heading |
|---|---|---|---|---|---|
| 2026-04-30 09:15 | 5.01473 | 6.95283 | 87 ft | 0 kts | 118° |
| 2026-04-30 09:28 | 5.01478 | 6.95273 | 85 ft | 4 kts | 117° |
| 2026-04-30 09:28 | 5.01491 | 6.95249 | 84 ft | 4 kts | 116° |
| 2026-04-30 09:28 | 5.01503 | 6.95225 | 83 ft | 4 kts | 121° |
| 2026-04-30 09:29 | 5.01518 | 6.95203 | 83 ft | 4 kts | 129° |
| 2026-04-30 09:29 | 5.01536 | 6.95183 | 84 ft | 4 kts | 135° |
| 2026-04-30 09:29 | 5.01545 | 6.95174 | 84 ft | 1 kts | 134° |
| 2026-04-30 09:32 | 5.01543 | 6.95175 | 86 ft | 1 kts | 136° |
| 2026-04-30 09:33 | 5.01520 | 6.95180 | 85 ft | 6 kts | 187° |
| 2026-04-30 09:33 | 5.01436 | 6.95124 | 84 ft | 25 kts | 213° |
| 2026-04-30 09:33 | 5.01269 | 6.95034 | 84 ft | 28 kts | 207° |
| 2026-04-30 09:33 | 5.01091 | 6.94941 | 81 ft | 29 kts | 207° |
| 2026-04-30 09:34 | 5.00912 | 6.94844 | 82 ft | 29 kts | 209° |
| 2026-04-30 09:34 | 5.00739 | 6.94750 | 84 ft | 29 kts | 208° |
| 2026-04-30 09:34 | 5.00553 | 6.94653 | 87 ft | 33 kts | 207° |
| 2026-04-30 09:34 | 5.00359 | 6.94549 | 84 ft | 28 kts | 208° |
| 2026-04-30 09:35 | 5.00295 | 6.94446 | 84 ft | 9 kts | 290° |
| 2026-04-30 09:35 | 5.00333 | 6.94375 | 84 ft | 15 kts | 299° |
| 2026-04-30 09:35 | 5.00383 | 6.94339 | 84 ft | 4 kts | 6° |
| 2026-04-30 09:35 | 5.00500 | 6.94380 | 82 ft | 46 kts | 20° |
| 2026-04-30 09:36 | 5.00916 | 6.94590 | 87 ft | 65 kts | 35° |
| 2026-04-30 09:36 | 5.01182 | 6.94767 | 84 ft | 31 kts | 32° |
| 2026-04-30 09:36 | 5.01554 | 6.94983 | 85 ft | 93 kts | 27° |
| 2026-04-30 09:36 | 5.02302 | 6.95364 | 86 ft | 146 kts | 28° |
| 2026-04-30 09:37 | 5.03319 | 6.95897 | 369 ft | 173 kts | 26° |
| 2026-04-30 09:37 | 5.04414 | 6.96448 | 924 ft | 183 kts | 27° |
| 2026-04-30 09:37 | 5.05559 | 6.97062 | 1618 ft | 189 kts | 30° |
| 2026-04-30 09:37 | 5.06763 | 6.97717 | 2082 ft | 209 kts | 28° |
| 2026-04-30 09:38 | 5.08199 | 6.98399 | 2431 ft | 246 kts | 24° |
| 2026-04-30 09:38 | 5.09829 | 6.99100 | 3251 ft | 259 kts | 24° |
| 2026-04-30 09:38 | 5.11509 | 6.99799 | 4254 ft | 263 kts | 24° |
| 2026-04-30 09:38 | 5.13210 | 7.00507 | 5289 ft | 266 kts | 25° |
| 2026-04-30 09:39 | 5.14906 | 7.01223 | 6301 ft | 268 kts | 26° |
| 2026-04-30 09:39 | 5.16625 | 7.01959 | 7266 ft | 270 kts | 26° |
| 2026-04-30 09:39 | 5.18362 | 7.02711 | 8213 ft | 273 kts | 27° |
| 2026-04-30 09:39 | 5.20106 | 7.03471 | 9213 ft | 275 kts | 27° |
| 2026-04-30 09:40 | 5.21873 | 7.04243 | 10166 ft | 277 kts | 27° |
| 2026-04-30 09:40 | 5.23683 | 7.05039 | 10725 ft | 295 kts | 27° |
| 2026-04-30 09:40 | 5.25635 | 7.05900 | 11123 ft | 314 kts | 27° |
| 2026-04-30 09:40 | 5.27678 | 7.06797 | 11720 ft | 325 kts | 26° |
| 2026-04-30 09:41 | 5.29774 | 7.07712 | 12417 ft | 331 kts | 26° |
| 2026-04-30 09:41 | 5.31908 | 7.08640 | 13110 ft | 338 kts | 26° |
| 2026-04-30 09:41 | 5.34088 | 7.09588 | 13864 ft | 343 kts | 26° |
| 2026-04-30 09:41 | 5.36285 | 7.10544 | 14524 ft | 347 kts | 26° |
| 2026-04-30 09:42 | 5.38524 | 7.11519 | 15181 ft | 353 kts | 26° |
| 2026-04-30 09:42 | 5.40021 | 7.12172 | 15636 ft | 356 kts | 26° |
| 2026-04-30 09:42 | 5.42309 | 7.13170 | 16324 ft | 361 kts | 26° |
| 2026-04-30 09:42 | 5.45388 | 7.14515 | 17262 ft | 367 kts | 27° |
| 2026-04-30 09:43 | 5.47742 | 7.15544 | 17941 ft | 372 kts | 27° |
| 2026-04-30 09:43 | 5.50128 | 7.16586 | 18574 ft | 376 kts | 27° |
| 2026-04-30 09:43 | 5.51730 | 7.17286 | 18964 ft | 379 kts | 27° |
| 2026-04-30 09:43 | 5.54166 | 7.18350 | 19576 ft | 383 kts | 27° |
| 2026-04-30 09:44 | 5.56625 | 7.19424 | 20172 ft | 387 kts | 27° |
| 2026-04-30 09:44 | 5.59104 | 7.20507 | 20759 ft | 390 kts | 27° |
| 2026-04-30 09:44 | 5.61609 | 7.21601 | 21340 ft | 394 kts | 27° |
| 2026-04-30 09:44 | 5.64140 | 7.22707 | 21914 ft | 398 kts | 27° |
| 2026-04-30 09:45 | 5.66696 | 7.23823 | 22466 ft | 402 kts | 27° |
| 2026-04-30 09:45 | 5.69270 | 7.24948 | 23048 ft | 405 kts | 27° |
| 2026-04-30 09:45 | 5.71836 | 7.26070 | 23597 ft | 409 kts | 27° |
| 2026-04-30 09:45 | 5.74457 | 7.27215 | 24030 ft | 413 kts | 26° |
| 2026-04-30 09:46 | 5.77097 | 7.28369 | 24465 ft | 416 kts | 26° |
| 2026-04-30 09:46 | 5.79767 | 7.29536 | 24903 ft | 420 kts | 26° |
| 2026-04-30 09:46 | 5.82455 | 7.30723 | 25354 ft | 423 kts | 27° |
| 2026-04-30 09:46 | 5.85155 | 7.31938 | 25791 ft | 426 kts | 27° |
| 2026-04-30 09:47 | 5.87867 | 7.33171 | 26216 ft | 429 kts | 27° |
| 2026-04-30 09:47 | 5.90599 | 7.34415 | 26659 ft | 433 kts | 27° |
| 2026-04-30 09:47 | 5.93353 | 7.35669 | 27064 ft | 436 kts | 27° |
| 2026-04-30 09:47 | 5.96127 | 7.36928 | 27468 ft | 439 kts | 26° |
| 2026-04-30 09:48 | 5.98885 | 7.38179 | 27873 ft | 442 kts | 26° |
| 2026-04-30 09:48 | 6.01700 | 7.39454 | 28264 ft | 445 kts | 26° |
| 2026-04-30 09:48 | 6.04529 | 7.40734 | 28674 ft | 448 kts | 26° |
| 2026-04-30 09:48 | 6.07383 | 7.42016 | 29058 ft | 451 kts | 26° |
| 2026-04-30 09:49 | 6.10262 | 7.43297 | 29430 ft | 454 kts | 25° |
| 2026-04-30 09:49 | 6.13165 | 7.44584 | 29799 ft | 457 kts | 25° |
| 2026-04-30 09:49 | 6.16079 | 7.45876 | 30152 ft | 460 kts | 25° |
| 2026-04-30 09:49 | 6.19027 | 7.47184 | 30468 ft | 462 kts | 25° |
| 2026-04-30 09:50 | 6.21934 | 7.48474 | 30795 ft | 463 kts | 25° |
| 2026-04-30 09:50 | 6.24885 | 7.49786 | 31133 ft | 465 kts | 25° |
| 2026-04-30 09:50 | 6.27859 | 7.51109 | 31457 ft | 466 kts | 25° |
| 2026-04-30 09:50 | 6.30827 | 7.52430 | 31767 ft | 468 kts | 25° |
| 2026-04-30 09:51 | 6.33806 | 7.53756 | 32080 ft | 470 kts | 25° |
| 2026-04-30 09:51 | 6.36801 | 7.55090 | 32452 ft | 469 kts | 25° |
| 2026-04-30 09:51 | 6.39781 | 7.56416 | 32896 ft | 467 kts | 25° |
| 2026-04-30 09:51 | 6.42754 | 7.57740 | 33287 ft | 467 kts | 25° |
| 2026-04-30 09:52 | 6.45774 | 7.58963 | 33526 ft | 470 kts | 19° |
| 2026-04-30 09:52 | 6.48947 | 7.59764 | 33894 ft | 472 kts | 11° |
| 2026-04-30 09:52 | 6.52225 | 7.60070 | 34235 ft | 473 kts | 4° |
| 2026-04-30 09:52 | 6.55521 | 7.60153 | 34538 ft | 473 kts | 2° |
| 2026-04-30 09:53 | 6.58819 | 7.60160 | 34868 ft | 472 kts | 1° |
| 2026-04-30 09:53 | 6.62064 | 7.60133 | 35165 ft | 472 kts | 1° |
| 2026-04-30 09:53 | 6.65345 | 7.60097 | 35480 ft | 471 kts | 1° |
| 2026-04-30 09:53 | 6.68616 | 7.60063 | 35784 ft | 470 kts | 2° |
| 2026-04-30 09:54 | 6.71899 | 7.60036 | 35997 ft | 472 kts | 2° |
| 2026-04-30 09:54 | 6.75181 | 7.60015 | 36035 ft | 468 kts | 2° |
| 2026-04-30 09:54 | 6.81621 | 7.59983 | 36038 ft | 460 kts | 2° |
| 2026-04-30 09:55 | 6.87972 | 7.59960 | 36034 ft | 460 kts | 2° |
| 2026-04-30 09:55 | 6.94408 | 7.59937 | 36036 ft | 461 kts | 2° |
| 2026-04-30 09:56 | 7.00825 | 7.59913 | 36034 ft | 461 kts | 2° |
| 2026-04-30 09:56 | 7.07247 | 7.59886 | 35852 ft | 465 kts | 2° |
| 2026-04-30 09:57 | 7.10509 | 7.59870 | 35606 ft | 470 kts | 2° |
| 2026-04-30 09:57 | 7.13791 | 7.59852 | 35358 ft | 472 kts | 2° |
| 2026-04-30 09:57 | 7.17076 | 7.59834 | 35094 ft | 473 kts | 2° |
| 2026-04-30 09:57 | 7.20381 | 7.59816 | 34579 ft | 472 kts | 1° |
| 2026-04-30 09:58 | 7.23634 | 7.59799 | 33887 ft | 475 kts | 1° |
| 2026-04-30 09:58 | 7.26944 | 7.59783 | 33109 ft | 478 kts | 1° |
| 2026-04-30 09:58 | 7.30275 | 7.59767 | 32360 ft | 479 kts | 1° |
| 2026-04-30 09:58 | 7.33618 | 7.59751 | 31602 ft | 481 kts | 1° |
| 2026-04-30 09:59 | 7.40274 | 7.59716 | 30553 ft | 474 kts | 1° |
| 2026-04-30 09:59 | 7.46822 | 7.59682 | 29442 ft | 466 kts | 1° |
| 2026-04-30 10:00 | 7.53221 | 7.59648 | 28343 ft | 458 kts | 1° |
| 2026-04-30 10:00 | 7.56434 | 7.59637 | 27792 ft | 454 kts | 1° |
| 2026-04-30 10:01 | 7.62667 | 7.59623 | 26759 ft | 447 kts | 2° |
| 2026-04-30 10:01 | 7.65779 | 7.59616 | 26211 ft | 444 kts | 2° |
| 2026-04-30 10:01 | 7.68852 | 7.59608 | 25689 ft | 441 kts | 2° |
| 2026-04-30 10:02 | 7.74957 | 7.59591 | 24645 ft | 436 kts | 2° |
| 2026-04-30 10:02 | 7.77993 | 7.59583 | 24128 ft | 433 kts | 2° |
| 2026-04-30 10:02 | 7.81000 | 7.59574 | 23596 ft | 432 kts | 2° |
| 2026-04-30 10:02 | 7.83959 | 7.59565 | 23021 ft | 429 kts | 2° |
| 2026-04-30 10:03 | 7.86939 | 7.59556 | 22506 ft | 425 kts | 2° |
| 2026-04-30 10:03 | 7.89881 | 7.59548 | 21992 ft | 421 kts | 2° |
| 2026-04-30 10:03 | 7.92801 | 7.59539 | 21484 ft | 417 kts | 2° |
| 2026-04-30 10:03 | 7.95692 | 7.59530 | 20984 ft | 414 kts | 2° |
| 2026-04-30 10:04 | 7.98565 | 7.59521 | 20480 ft | 411 kts | 2° |
| 2026-04-30 10:04 | 8.01380 | 7.59513 | 19991 ft | 408 kts | 2° |
| 2026-04-30 10:04 | 8.04245 | 7.59505 | 19493 ft | 405 kts | 2° |
| 2026-04-30 10:04 | 8.07013 | 7.59497 | 19013 ft | 402 kts | 3° |
| 2026-04-30 10:05 | 8.09812 | 7.59484 | 18490 ft | 401 kts | 2° |
| 2026-04-30 10:05 | 8.12597 | 7.59467 | 17949 ft | 399 kts | 2° |
| 2026-04-30 10:05 | 8.15358 | 7.59450 | 17443 ft | 395 kts | 2° |
| 2026-04-30 10:05 | 8.18091 | 7.59434 | 16940 ft | 391 kts | 2° |
| 2026-04-30 10:06 | 8.20800 | 7.59418 | 16467 ft | 387 kts | 2° |
| 2026-04-30 10:06 | 8.23477 | 7.59398 | 15986 ft | 383 kts | 2° |
| 2026-04-30 10:06 | 8.26116 | 7.59040 | 15485 ft | 385 kts | 346° |
| 2026-04-30 10:06 | 8.28546 | 7.57903 | 14981 ft | 387 kts | 333° |
| 2026-04-30 10:07 | 8.30858 | 7.56521 | 14483 ft | 385 kts | 332° |
| 2026-04-30 10:07 | 8.33143 | 7.55140 | 13997 ft | 382 kts | 332° |
| 2026-04-30 10:07 | 8.35428 | 7.53768 | 13489 ft | 379 kts | 332° |
| 2026-04-30 10:07 | 8.37688 | 7.52417 | 12973 ft | 376 kts | 332° |
| 2026-04-30 10:08 | 8.39905 | 7.51096 | 12484 ft | 372 kts | 332° |
| 2026-04-30 10:08 | 8.42131 | 7.49772 | 12029 ft | 369 kts | 332° |
| 2026-04-30 10:08 | 8.44331 | 7.48464 | 11564 ft | 365 kts | 332° |
| 2026-04-30 10:08 | 8.46510 | 7.47168 | 11087 ft | 362 kts | 332° |
| 2026-04-30 10:09 | 8.48670 | 7.45885 | 10611 ft | 359 kts | 332° |
| 2026-04-30 10:09 | 8.50796 | 7.44620 | 10462 ft | 347 kts | 333° |
| 2026-04-30 10:09 | 8.52836 | 7.43404 | 10355 ft | 334 kts | 333° |
| 2026-04-30 10:09 | 8.54814 | 7.42228 | 10226 ft | 324 kts | 333° |
| 2026-04-30 10:10 | 8.56731 | 7.41089 | 10087 ft | 315 kts | 333° |
| 2026-04-30 10:10 | 8.58588 | 7.39984 | 9831 ft | 304 kts | 333° |
| 2026-04-30 10:10 | 8.60389 | 7.38913 | 9297 ft | 294 kts | 333° |
| 2026-04-30 10:10 | 8.62098 | 7.37898 | 8868 ft | 284 kts | 333° |
| 2026-04-30 10:11 | 8.63812 | 7.36881 | 8516 ft | 283 kts | 332° |
| 2026-04-30 10:11 | 8.65499 | 7.35880 | 8182 ft | 286 kts | 332° |
| 2026-04-30 10:11 | 8.67223 | 7.34857 | 7858 ft | 288 kts | 332° |
| 2026-04-30 10:11 | 8.68942 | 7.33834 | 7569 ft | 286 kts | 332° |
| 2026-04-30 10:12 | 8.70559 | 7.32663 | 7249 ft | 287 kts | 317° |
| 2026-04-30 10:12 | 8.71789 | 7.31073 | 6961 ft | 287 kts | 305° |
| 2026-04-30 10:12 | 8.72880 | 7.29381 | 6681 ft | 286 kts | 304° |
| 2026-04-30 10:12 | 8.73952 | 7.27698 | 6390 ft | 284 kts | 304° |
| 2026-04-30 10:13 | 8.75022 | 7.26033 | 6071 ft | 279 kts | 304° |
| 2026-04-30 10:13 | 8.76068 | 7.24412 | 5602 ft | 271 kts | 304° |
| 2026-04-30 10:13 | 8.77077 | 7.22851 | 5221 ft | 260 kts | 304° |
| 2026-04-30 10:13 | 8.78071 | 7.21316 | 5061 ft | 263 kts | 304° |
| 2026-04-30 10:14 | 8.79070 | 7.19798 | 4989 ft | 261 kts | 306° |
| 2026-04-30 10:14 | 8.80108 | 7.18314 | 4727 ft | 257 kts | 306° |
| 2026-04-30 10:14 | 8.82268 | 7.15461 | 4050 ft | 256 kts | 321° |
| 2026-04-30 10:15 | 8.83909 | 7.14838 | 3756 ft | 255 kts | 357° |
| 2026-04-30 10:15 | 8.85599 | 7.15293 | 3448 ft | 256 kts | 31° |
| 2026-04-30 10:15 | 8.86948 | 7.16393 | 3297 ft | 240 kts | 41° |
| 2026-04-30 10:15 | 8.88160 | 7.17433 | 3090 ft | 218 kts | 37° |
| 2026-04-30 10:16 | 8.89333 | 7.18279 | 3060 ft | 193 kts | 31° |
| 2026-04-30 10:16 | 8.90367 | 7.18987 | 3061 ft | 165 kts | 33° |
| 2026-04-30 10:16 | 8.91230 | 7.19607 | 2968 ft | 146 kts | 33° |
| 2026-04-30 10:17 | 8.92807 | 7.20730 | 2625 ft | 137 kts | 33° |
| 2026-04-30 10:17 | 8.94373 | 7.21842 | 2265 ft | 138 kts | 34° |
| 2026-04-30 10:17 | 8.95156 | 7.22398 | 2086 ft | 138 kts | 34° |
| 2026-04-30 10:18 | 8.95941 | 7.22955 | 1924 ft | 138 kts | 34° |
| 2026-04-30 10:18 | 8.96728 | 7.23514 | 1756 ft | 138 kts | 34° |
| 2026-04-30 10:18 | 8.97513 | 7.24071 | 1580 ft | 138 kts | 34° |
| 2026-04-30 10:19 | 8.99078 | 7.25188 | 1209 ft | 137 kts | 34° |
| 2026-04-30 10:19 | 8.99844 | 7.25740 | 1099 ft | 129 kts | 35° |
| 2026-04-30 10:19 | 9.00373 | 7.26106 | 1110 ft | 60 kts | 34° |
| 2026-04-30 10:19 | 9.00568 | 7.26243 | 1116 ft | 10 kts | 35° |
| 2026-04-30 10:20 | 9.00633 | 7.26289 | 1109 ft | 12 kts | 35° |
| 2026-04-30 10:20 | 9.00691 | 7.26361 | 1112 ft | 4 kts | 103° |
| 2026-04-30 10:20 | 9.00673 | 7.26405 | 1113 ft | 9 kts | 116° |
| 2026-04-30 10:21 | 9.00650 | 7.26467 | 1110 ft | 8 kts | 91° |
| 2026-04-30 10:21 | 9.00665 | 7.26506 | 1115 ft | 3 kts | 51° |
| 2026-04-30 10:21 | 9.00679 | 7.26521 | 1113 ft | 3 kts | 48° |
| 2026-04-30 10:21 | 9.00710 | 7.26551 | 1114 ft | 12 kts | 41° |
| 2026-04-30 10:22 | 9.00784 | 7.26613 | 1124 ft | 10 kts | 60° |
| 2026-04-30 10:22 | 9.00787 | 7.26663 | 1132 ft | 9 kts | 103° |
| 2026-04-30 10:22 | 9.00754 | 7.26692 | 1131 ft | 4 kts | 167° |
| 2026-04-30 10:22 | 9.00719 | 7.26694 | 1131 ft | 6 kts | 179° |
| 2026-04-30 10:23 | 9.00709 | 7.26695 | 1132 ft | 0 kts | 179° |